sensor_id;sensor_type;location;lat;lon;timestamp;P1;durP1;ratioP1;P2;durP2;ratioP2
5519;SDS011;2782;52.362;10.012;2023-09-12T00:00:09;11.60;;;7.35;;
5519;SDS011;2782;52.362;10.012;2023-09-12T00:01:11;13.15;;;7.85;;
5519;SDS011;2782;52.362;10.012;2023-09-12T00:02:13;13.30;;;6.85;;
5519;SDS011;2782;52.362;10.012;2023-09-12T00:03:14;12.10;;;6.90;;
5519;SDS011;2782;52.362;10.012;2023-09-12T00:04:16;11.55;;;6.40;;
5519;SDS011;2782;52.362;10.012;2023-09-12T00:05:16;11.33;;;6.77;;
5519;SDS011;2782;52.362;10.012;2023-09-12T00:06:18;20.00;;;6.65;;
5519;SDS011;2782;52.362;10.012;2023-09-12T00:07:19;12.30;;;7.40;;
5519;SDS011;2782;52.362;10.012;2023-09-12T00:08:21;13.93;;;7.15;;
5519;SDS011;2782;52.362;10.012;2023-09-12T00:09:22;10.85;;;6.68;;
5519;SDS011;2782;52.362;10.012;2023-09-12T00:10:22;12.73;;;6.80;;
5519;SDS011;2782;52.362;10.012;2023-09-12T00:11:24;11.25;;;6.50;;
5519;SDS011;2782;52.362;10.012;2023-09-12T00:12:27;11.37;;;6.40;;
5519;SDS011;2782;52.362;10.012;2023-09-12T00:13:29;12.45;;;6.53;;
5519;SDS011;2782;52.362;10.012;2023-09-12T00:14:30;11.73;;;6.88;;
5519;SDS011;2782;52.362;10.012;2023-09-12T00:15:32;9.48;;;7.30;;
5519;SDS011;2782;52.362;10.012;2023-09-12T00:16:32;12.97;;;8.30;;
5519;SDS011;2782;52.362;10.012;2023-09-12T00:17:34;12.55;;;7.70;;
5519;SDS011;2782;52.362;10.012;2023-09-12T00:18:35;11.03;;;6.97;;
5519;SDS011;2782;52.362;10.012;2023-09-12T00:19:36;11.82;;;6.80;;
5519;SDS011;2782;52.362;10.012;2023-09-12T00:20:37;8.77;;;7.00;;
5519;SDS011;2782;52.362;10.012;2023-09-12T00:21:38;11.95;;;6.50;;
5519;SDS011;2782;52.362;10.012;2023-09-12T00:22:39;8.07;;;6.90;;
5519;SDS011;2782;52.362;10.012;2023-09-12T00:23:41;11.93;;;7.38;;
5519;SDS011;2782;52.362;10.012;2023-09-12T00:24:41;17.37;;;7.20;;
5519;SDS011;2782;52.362;10.012;2023-09-12T00:25:43;12.65;;;7.63;;
5519;SDS011;2782;52.362;10.012;2023-09-12T00:26:44;11.37;;;7.73;;
5519;SDS011;2782;52.362;10.012;2023-09-12T00:27:47;8.45;;;6.80;;
5519;SDS011;2782;52.362;10.012;2023-09-12T00:28:47;10.57;;;7.45;;
5519;SDS011;2782;52.362;10.012;2023-09-12T00:29:49;11.93;;;8.15;;
5519;SDS011;2782;52.362;10.012;2023-09-12T00:30:51;13.23;;;6.83;;
5519;SDS011;2782;52.362;10.012;2023-09-12T00:31:52;10.15;;;7.55;;
5519;SDS011;2782;52.362;10.012;2023-09-12T00:32:53;13.03;;;7.47;;
5519;SDS011;2782;52.362;10.012;2023-09-12T00:33:54;11.27;;;7.13;;
5519;SDS011;2782;52.362;10.012;2023-09-12T00:34:55;13.20;;;7.60;;
5519;SDS011;2782;52.362;10.012;2023-09-12T00:35:57;8.90;;;7.60;;
5519;SDS011;2782;52.362;10.012;2023-09-12T00:36:58;9.67;;;7.30;;
5519;SDS011;2782;52.362;10.012;2023-09-12T00:37:59;11.25;;;7.50;;
5519;SDS011;2782;52.362;10.012;2023-09-12T00:39:00;15.80;;;7.30;;
5519;SDS011;2782;52.362;10.012;2023-09-12T00:40:02;13.95;;;7.75;;
5519;SDS011;2782;52.362;10.012;2023-09-12T00:41:03;11.80;;;7.63;;
5519;SDS011;2782;52.362;10.012;2023-09-12T00:42:04;11.93;;;7.40;;
5519;SDS011;2782;52.362;10.012;2023-09-12T00:43:08;12.55;;;7.20;;
5519;SDS011;2782;52.362;10.012;2023-09-12T00:44:11;13.32;;;7.53;;
5519;SDS011;2782;52.362;10.012;2023-09-12T00:45:11;17.27;;;7.67;;
5519;SDS011;2782;52.362;10.012;2023-09-12T00:46:13;9.88;;;6.95;;
5519;SDS011;2782;52.362;10.012;2023-09-12T00:47:18;8.30;;;6.93;;
5519;SDS011;2782;52.362;10.012;2023-09-12T00:48:20;17.33;;;7.43;;
5519;SDS011;2782;52.362;10.012;2023-09-12T00:49:23;10.98;;;7.20;;
5519;SDS011;2782;52.362;10.012;2023-09-12T00:50:24;8.75;;;6.90;;
5519;SDS011;2782;52.362;10.012;2023-09-12T00:51:26;10.85;;;7.22;;
5519;SDS011;2782;52.362;10.012;2023-09-12T00:52:29;11.25;;;6.95;;
5519;SDS011;2782;52.362;10.012;2023-09-12T00:53:30;13.20;;;6.90;;
5519;SDS011;2782;52.362;10.012;2023-09-12T00:54:32;10.73;;;7.57;;
5519;SDS011;2782;52.362;10.012;2023-09-12T00:55:33;9.30;;;7.80;;
5519;SDS011;2782;52.362;10.012;2023-09-12T00:56:36;11.80;;;8.07;;
5519;SDS011;2782;52.362;10.012;2023-09-12T00:57:38;10.80;;;8.60;;
5519;SDS011;2782;52.362;10.012;2023-09-12T00:58:41;9.23;;;8.15;;
5519;SDS011;2782;52.362;10.012;2023-09-12T00:59:42;13.30;;;8.93;;
5519;SDS011;2782;52.362;10.012;2023-09-12T01:00:44;13.82;;;7.78;;
5519;SDS011;2782;52.362;10.012;2023-09-12T01:01:46;14.33;;;7.40;;
5519;SDS011;2782;52.362;10.012;2023-09-12T01:02:47;10.90;;;7.25;;
5519;SDS011;2782;52.362;10.012;2023-09-12T01:03:51;12.77;;;8.27;;
5519;SDS011;2782;52.362;10.012;2023-09-12T01:04:52;13.43;;;8.50;;
5519;SDS011;2782;52.362;10.012;2023-09-12T01:05:54;13.13;;;8.70;;
5519;SDS011;2782;52.362;10.012;2023-09-12T01:06:55;11.38;;;7.10;;
5519;SDS011;2782;52.362;10.012;2023-09-12T01:07:55;11.13;;;8.43;;
5519;SDS011;2782;52.362;10.012;2023-09-12T01:08:57;15.35;;;8.40;;
5519;SDS011;2782;52.362;10.012;2023-09-12T01:09:58;15.93;;;8.20;;
5519;SDS011;2782;52.362;10.012;2023-09-12T01:11:00;15.00;;;9.13;;
5519;SDS011;2782;52.362;10.012;2023-09-12T01:12:03;9.48;;;8.20;;
5519;SDS011;2782;52.362;10.012;2023-09-12T01:13:05;13.30;;;8.20;;
5519;SDS011;2782;52.362;10.012;2023-09-12T01:14:07;10.50;;;7.50;;
5519;SDS011;2782;52.362;10.012;2023-09-12T01:15:08;14.52;;;9.07;;
5519;SDS011;2782;52.362;10.012;2023-09-12T01:16:13;14.80;;;9.60;;
5519;SDS011;2782;52.362;10.012;2023-09-12T01:17:14;13.00;;;7.93;;
5519;SDS011;2782;52.362;10.012;2023-09-12T01:18:15;14.67;;;8.30;;
5519;SDS011;2782;52.362;10.012;2023-09-12T01:19:16;12.45;;;8.65;;
5519;SDS011;2782;52.362;10.012;2023-09-12T01:20:21;12.73;;;8.40;;
5519;SDS011;2782;52.362;10.012;2023-09-12T01:23:14;16.38;;;8.00;;
5519;SDS011;2782;52.362;10.012;2023-09-12T01:24:38;11.93;;;8.02;;
5519;SDS011;2782;52.362;10.012;2023-09-12T01:26:03;15.45;;;8.82;;
5519;SDS011;2782;52.362;10.012;2023-09-12T01:27:20;9.82;;;7.50;;
5519;SDS011;2782;52.362;10.012;2023-09-12T01:28:23;12.25;;;9.13;;
5519;SDS011;2782;52.362;10.012;2023-09-12T01:29:26;14.43;;;9.32;;
5519;SDS011;2782;52.362;10.012;2023-09-12T01:30:27;16.75;;;9.15;;
5519;SDS011;2782;52.362;10.012;2023-09-12T01:31:32;16.10;;;8.75;;
5519;SDS011;2782;52.362;10.012;2023-09-12T01:32:34;12.13;;;8.90;;
5519;SDS011;2782;52.362;10.012;2023-09-12T01:33:36;13.02;;;8.52;;
5519;SDS011;2782;52.362;10.012;2023-09-12T01:34:37;12.65;;;8.85;;
5519;SDS011;2782;52.362;10.012;2023-09-12T01:35:38;16.97;;;9.13;;
5519;SDS011;2782;52.362;10.012;2023-09-12T01:36:40;12.20;;;8.48;;
5519;SDS011;2782;52.362;10.012;2023-09-12T01:37:40;14.53;;;8.73;;
5519;SDS011;2782;52.362;10.012;2023-09-12T01:38:42;15.38;;;8.98;;
5519;SDS011;2782;52.362;10.012;2023-09-12T01:39:43;11.27;;;8.80;;
5519;SDS011;2782;52.362;10.012;2023-09-12T01:40:45;12.05;;;8.63;;
5519;SDS011;2782;52.362;10.012;2023-09-12T01:41:48;13.63;;;9.45;;
5519;SDS011;2782;52.362;10.012;2023-09-12T01:42:52;17.33;;;9.13;;
5519;SDS011;2782;52.362;10.012;2023-09-12T01:43:56;10.35;;;7.93;;
5519;SDS011;2782;52.362;10.012;2023-09-12T01:45:00;10.25;;;8.43;;
5519;SDS011;2782;52.362;10.012;2023-09-12T01:46:02;13.35;;;9.50;;
5519;SDS011;2782;52.362;10.012;2023-09-12T01:47:04;15.02;;;7.85;;
5519;SDS011;2782;52.362;10.012;2023-09-12T01:48:06;17.17;;;9.00;;
5519;SDS011;2782;52.362;10.012;2023-09-12T01:49:09;12.82;;;8.70;;
5519;SDS011;2782;52.362;10.012;2023-09-12T01:50:11;11.43;;;9.23;;
5519;SDS011;2782;52.362;10.012;2023-09-12T01:51:14;13.02;;;9.38;;
5519;SDS011;2782;52.362;10.012;2023-09-12T01:52:15;12.45;;;9.27;;
5519;SDS011;2782;52.362;10.012;2023-09-12T01:53:17;15.35;;;9.40;;
5519;SDS011;2782;52.362;10.012;2023-09-12T01:54:19;12.05;;;8.90;;
5519;SDS011;2782;52.362;10.012;2023-09-12T01:55:21;14.43;;;8.52;;
5519;SDS011;2782;52.362;10.012;2023-09-12T01:56:23;12.90;;;9.02;;
5519;SDS011;2782;52.362;10.012;2023-09-12T01:57:25;13.20;;;9.00;;
5519;SDS011;2782;52.362;10.012;2023-09-12T01:58:27;13.70;;;9.60;;
5519;SDS011;2782;52.362;10.012;2023-09-12T01:59:30;14.68;;;8.77;;
5519;SDS011;2782;52.362;10.012;2023-09-12T02:00:30;11.23;;;8.57;;
5519;SDS011;2782;52.362;10.012;2023-09-12T02:01:34;16.77;;;8.40;;
5519;SDS011;2782;52.362;10.012;2023-09-12T02:02:34;15.27;;;9.03;;
5519;SDS011;2782;52.362;10.012;2023-09-12T02:03:36;15.15;;;9.52;;
5519;SDS011;2782;52.362;10.012;2023-09-12T02:04:37;14.20;;;10.07;;
5519;SDS011;2782;52.362;10.012;2023-09-12T02:05:38;12.18;;;9.98;;
5519;SDS011;2782;52.362;10.012;2023-09-12T02:06:40;13.07;;;8.15;;
5519;SDS011;2782;52.362;10.012;2023-09-12T02:07:41;12.30;;;7.97;;
5519;SDS011;2782;52.362;10.012;2023-09-12T02:08:43;12.45;;;9.05;;
5519;SDS011;2782;52.362;10.012;2023-09-12T02:09:43;14.83;;;9.30;;
5519;SDS011;2782;52.362;10.012;2023-09-12T02:10:45;14.25;;;8.98;;
5519;SDS011;2782;52.362;10.012;2023-09-12T02:11:46;10.63;;;9.27;;
5519;SDS011;2782;52.362;10.012;2023-09-12T02:12:49;15.65;;;10.00;;
5519;SDS011;2782;52.362;10.012;2023-09-12T02:13:51;12.17;;;9.03;;
5519;SDS011;2782;52.362;10.012;2023-09-12T02:14:52;15.85;;;9.25;;
5519;SDS011;2782;52.362;10.012;2023-09-12T02:15:58;10.10;;;9.10;;
5519;SDS011;2782;52.362;10.012;2023-09-12T02:17:00;12.82;;;8.63;;
5519;SDS011;2782;52.362;10.012;2023-09-12T02:18:00;12.97;;;9.83;;
5519;SDS011;2782;52.362;10.012;2023-09-12T02:19:03;14.80;;;9.88;;
5519;SDS011;2782;52.362;10.012;2023-09-12T02:20:04;11.67;;;9.00;;
5519;SDS011;2782;52.362;10.012;2023-09-12T02:21:07;14.10;;;9.35;;
5519;SDS011;2782;52.362;10.012;2023-09-12T02:22:08;12.90;;;8.90;;
5519;SDS011;2782;52.362;10.012;2023-09-12T02:23:09;11.90;;;9.30;;
5519;SDS011;2782;52.362;10.012;2023-09-12T02:24:10;12.10;;;9.20;;
5519;SDS011;2782;52.362;10.012;2023-09-12T02:25:11;12.88;;;9.00;;
5519;SDS011;2782;52.362;10.012;2023-09-12T02:26:12;16.00;;;9.00;;
5519;SDS011;2782;52.362;10.012;2023-09-12T02:27:13;14.33;;;8.90;;
5519;SDS011;2782;52.362;10.012;2023-09-12T02:28:15;15.50;;;9.90;;
5519;SDS011;2782;52.362;10.012;2023-09-12T02:29:17;15.97;;;9.03;;
5519;SDS011;2782;52.362;10.012;2023-09-12T02:30:18;12.73;;;8.82;;
5519;SDS011;2782;52.362;10.012;2023-09-12T02:31:19;12.57;;;8.57;;
5519;SDS011;2782;52.362;10.012;2023-09-12T02:32:21;14.30;;;9.40;;
5519;SDS011;2782;52.362;10.012;2023-09-12T02:33:21;11.50;;;8.30;;
5519;SDS011;2782;52.362;10.012;2023-09-12T02:34:23;19.13;;;9.18;;
5519;SDS011;2782;52.362;10.012;2023-09-12T02:35:24;15.53;;;9.13;;
5519;SDS011;2782;52.362;10.012;2023-09-12T02:36:25;11.90;;;9.20;;
5519;SDS011;2782;52.362;10.012;2023-09-12T02:37:26;11.03;;;9.17;;
5519;SDS011;2782;52.362;10.012;2023-09-12T02:38:27;12.37;;;8.67;;
5519;SDS011;2782;52.362;10.012;2023-09-12T02:39:29;13.25;;;8.98;;
5519;SDS011;2782;52.362;10.012;2023-09-12T02:40:30;14.00;;;9.53;;
5519;SDS011;2782;52.362;10.012;2023-09-12T02:41:31;13.75;;;9.65;;
5519;SDS011;2782;52.362;10.012;2023-09-12T02:42:32;9.93;;;8.57;;
5519;SDS011;2782;52.362;10.012;2023-09-12T02:43:34;13.80;;;9.00;;
5519;SDS011;2782;52.362;10.012;2023-09-12T02:44:36;12.70;;;9.13;;
5519;SDS011;2782;52.362;10.012;2023-09-12T02:45:37;12.00;;;8.90;;
5519;SDS011;2782;52.362;10.012;2023-09-12T02:46:38;11.63;;;8.20;;
5519;SDS011;2782;52.362;10.012;2023-09-12T02:47:40;11.90;;;8.82;;
5519;SDS011;2782;52.362;10.012;2023-09-12T02:48:40;11.83;;;9.30;;
5519;SDS011;2782;52.362;10.012;2023-09-12T02:49:42;16.75;;;9.60;;
5519;SDS011;2782;52.362;10.012;2023-09-12T02:50:43;14.20;;;8.40;;
5519;SDS011;2782;52.362;10.012;2023-09-12T02:51:45;12.18;;;8.68;;
5519;SDS011;2782;52.362;10.012;2023-09-12T02:52:46;15.33;;;9.07;;
5519;SDS011;2782;52.362;10.012;2023-09-12T02:53:48;14.57;;;9.10;;
5519;SDS011;2782;52.362;10.012;2023-09-12T02:54:48;15.30;;;9.57;;
5519;SDS011;2782;52.362;10.012;2023-09-12T02:55:51;14.70;;;9.77;;
5519;SDS011;2782;52.362;10.012;2023-09-12T02:56:54;11.75;;;8.18;;
5519;SDS011;2782;52.362;10.012;2023-09-12T02:57:55;15.40;;;9.00;;
5519;SDS011;2782;52.362;10.012;2023-09-12T02:58:56;12.75;;;8.52;;
5519;SDS011;2782;52.362;10.012;2023-09-12T02:59:58;20.67;;;9.57;;
5519;SDS011;2782;52.362;10.012;2023-09-12T03:01:00;13.68;;;9.43;;
5519;SDS011;2782;52.362;10.012;2023-09-12T03:02:03;11.05;;;8.50;;
5519;SDS011;2782;52.362;10.012;2023-09-12T03:03:05;12.52;;;9.15;;
5519;SDS011;2782;52.362;10.012;2023-09-12T03:04:05;14.60;;;8.30;;
5519;SDS011;2782;52.362;10.012;2023-09-12T03:05:07;14.38;;;9.10;;
5519;SDS011;2782;52.362;10.012;2023-09-12T03:06:08;14.55;;;8.32;;
5519;SDS011;2782;52.362;10.012;2023-09-12T03:07:10;15.30;;;8.90;;
5519;SDS011;2782;52.362;10.012;2023-09-12T03:08:10;15.57;;;8.73;;
5519;SDS011;2782;52.362;10.012;2023-09-12T03:09:11;15.00;;;8.90;;
5519;SDS011;2782;52.362;10.012;2023-09-12T03:10:16;13.30;;;9.68;;
5519;SDS011;2782;52.362;10.012;2023-09-12T03:11:17;14.60;;;9.27;;
5519;SDS011;2782;52.362;10.012;2023-09-12T03:12:19;15.15;;;8.57;;
5519;SDS011;2782;52.362;10.012;2023-09-12T03:13:19;16.67;;;9.30;;
5519;SDS011;2782;52.362;10.012;2023-09-12T03:14:21;9.98;;;8.07;;
5519;SDS011;2782;52.362;10.012;2023-09-12T03:15:23;15.03;;;9.67;;
5519;SDS011;2782;52.362;10.012;2023-09-12T03:16:24;14.40;;;10.13;;
5519;SDS011;2782;52.362;10.012;2023-09-12T03:17:25;11.40;;;9.23;;
5519;SDS011;2782;52.362;10.012;2023-09-12T03:18:29;11.18;;;8.98;;
5519;SDS011;2782;52.362;10.012;2023-09-12T03:19:30;12.10;;;8.90;;
5519;SDS011;2782;52.362;10.012;2023-09-12T03:20:31;10.75;;;8.75;;
5519;SDS011;2782;52.362;10.012;2023-09-12T03:21:32;13.63;;;8.63;;
5519;SDS011;2782;52.362;10.012;2023-09-12T03:22:33;13.10;;;9.35;;
5519;SDS011;2782;52.362;10.012;2023-09-12T03:23:37;14.50;;;9.25;;
5519;SDS011;2782;52.362;10.012;2023-09-12T03:24:39;13.32;;;9.23;;
5519;SDS011;2782;52.362;10.012;2023-09-12T03:25:40;12.87;;;9.83;;
5519;SDS011;2782;52.362;10.012;2023-09-12T03:26:40;13.40;;;9.77;;
5519;SDS011;2782;52.362;10.012;2023-09-12T03:27:42;10.52;;;8.50;;
5519;SDS011;2782;52.362;10.012;2023-09-12T03:28:42;11.53;;;9.30;;
5519;SDS011;2782;52.362;10.012;2023-09-12T03:29:46;14.32;;;9.70;;
5519;SDS011;2782;52.362;10.012;2023-09-12T03:30:48;13.65;;;9.48;;
5519;SDS011;2782;52.362;10.012;2023-09-12T03:31:50;12.40;;;10.05;;
5519;SDS011;2782;52.362;10.012;2023-09-12T03:32:50;11.93;;;10.35;;
5519;SDS011;2782;52.362;10.012;2023-09-12T03:33:52;21.33;;;10.38;;
5519;SDS011;2782;52.362;10.012;2023-09-12T03:34:53;13.50;;;9.30;;
5519;SDS011;2782;52.362;10.012;2023-09-12T03:35:54;14.80;;;10.20;;
5519;SDS011;2782;52.362;10.012;2023-09-12T03:36:55;13.90;;;9.77;;
5519;SDS011;2782;52.362;10.012;2023-09-12T03:37:57;14.73;;;9.52;;
5519;SDS011;2782;52.362;10.012;2023-09-12T03:38:57;15.00;;;10.17;;
5519;SDS011;2782;52.362;10.012;2023-09-12T03:39:59;13.90;;;10.27;;
5519;SDS011;2782;52.362;10.012;2023-09-12T03:41:00;15.47;;;10.10;;
5519;SDS011;2782;52.362;10.012;2023-09-12T03:42:01;19.30;;;10.40;;
5519;SDS011;2782;52.362;10.012;2023-09-12T03:43:03;15.75;;;9.43;;
5519;SDS011;2782;52.362;10.012;2023-09-12T03:44:04;11.47;;;9.13;;
5519;SDS011;2782;52.362;10.012;2023-09-12T03:45:05;13.35;;;10.10;;
5519;SDS011;2782;52.362;10.012;2023-09-12T03:46:09;15.00;;;9.45;;
5519;SDS011;2782;52.362;10.012;2023-09-12T03:47:09;16.17;;;10.50;;
5519;SDS011;2782;52.362;10.012;2023-09-12T03:48:11;12.60;;;9.23;;
5519;SDS011;2782;52.362;10.012;2023-09-12T03:49:12;14.70;;;9.80;;
5519;SDS011;2782;52.362;10.012;2023-09-12T03:50:13;13.60;;;10.50;;
5519;SDS011;2782;52.362;10.012;2023-09-12T03:51:14;11.50;;;10.13;;
5519;SDS011;2782;52.362;10.012;2023-09-12T03:52:16;14.93;;;9.63;;
5519;SDS011;2782;52.362;10.012;2023-09-12T03:53:16;16.87;;;10.70;;
5519;SDS011;2782;52.362;10.012;2023-09-12T03:54:18;14.50;;;10.48;;
5519;SDS011;2782;52.362;10.012;2023-09-12T03:55:19;15.00;;;10.80;;
5519;SDS011;2782;52.362;10.012;2023-09-12T03:56:20;17.52;;;10.68;;
5519;SDS011;2782;52.362;10.012;2023-09-12T03:57:21;13.33;;;9.23;;
5519;SDS011;2782;52.362;10.012;2023-09-12T03:58:23;15.50;;;10.07;;
5519;SDS011;2782;52.362;10.012;2023-09-12T03:59:24;15.97;;;11.40;;
5519;SDS011;2782;52.362;10.012;2023-09-12T04:00:25;14.57;;;10.50;;
5519;SDS011;2782;52.362;10.012;2023-09-12T04:01:27;12.70;;;9.33;;
5519;SDS011;2782;52.362;10.012;2023-09-12T04:02:29;16.20;;;10.73;;
5519;SDS011;2782;52.362;10.012;2023-09-12T04:03:30;15.37;;;9.43;;
5519;SDS011;2782;52.362;10.012;2023-09-12T04:04:32;18.30;;;9.88;;
5519;SDS011;2782;52.362;10.012;2023-09-12T04:05:32;15.97;;;10.57;;
5519;SDS011;2782;52.362;10.012;2023-09-12T04:06:34;11.88;;;9.88;;
5519;SDS011;2782;52.362;10.012;2023-09-12T04:07:35;12.87;;;9.63;;
5519;SDS011;2782;52.362;10.012;2023-09-12T04:08:38;13.10;;;9.23;;
5519;SDS011;2782;52.362;10.012;2023-09-12T04:09:39;16.07;;;9.83;;
5519;SDS011;2782;52.362;10.012;2023-09-12T04:10:40;17.27;;;9.57;;
5519;SDS011;2782;52.362;10.012;2023-09-12T04:11:41;13.33;;;9.73;;
5519;SDS011;2782;52.362;10.012;2023-09-12T04:12:43;17.80;;;12.20;;
5519;SDS011;2782;52.362;10.012;2023-09-12T04:13:44;19.50;;;13.60;;
5519;SDS011;2782;52.362;10.012;2023-09-12T04:14:45;18.13;;;13.95;;
5519;SDS011;2782;52.362;10.012;2023-09-12T04:15:47;19.73;;;14.70;;
5519;SDS011;2782;52.362;10.012;2023-09-12T04:16:49;21.20;;;14.83;;
5519;SDS011;2782;52.362;10.012;2023-09-12T04:17:51;25.70;;;15.80;;
5519;SDS011;2782;52.362;10.012;2023-09-12T04:18:52;23.77;;;15.70;;
5519;SDS011;2782;52.362;10.012;2023-09-12T04:19:54;23.35;;;15.95;;
5519;SDS011;2782;52.362;10.012;2023-09-12T04:20:54;19.37;;;15.03;;
5519;SDS011;2782;52.362;10.012;2023-09-12T04:21:57;22.00;;;15.77;;
5519;SDS011;2782;52.362;10.012;2023-09-12T04:23:00;19.75;;;15.95;;
5519;SDS011;2782;52.362;10.012;2023-09-12T04:24:02;31.17;;;16.60;;
5519;SDS011;2782;52.362;10.012;2023-09-12T04:25:05;24.73;;;15.93;;
5519;SDS011;2782;52.362;10.012;2023-09-12T04:26:06;29.63;;;16.55;;
5519;SDS011;2782;52.362;10.012;2023-09-12T04:27:08;19.83;;;15.43;;
5519;SDS011;2782;52.362;10.012;2023-09-12T04:28:08;22.17;;;15.80;;
5519;SDS011;2782;52.362;10.012;2023-09-12T04:29:10;23.33;;;16.67;;
5519;SDS011;2782;52.362;10.012;2023-09-12T04:30:11;24.73;;;16.27;;
5519;SDS011;2782;52.362;10.012;2023-09-12T04:31:13;21.15;;;16.60;;
5519;SDS011;2782;52.362;10.012;2023-09-12T04:32:15;26.67;;;17.17;;
5519;SDS011;2782;52.362;10.012;2023-09-12T04:33:23;32.35;;;16.52;;
5519;SDS011;2782;52.362;10.012;2023-09-12T04:34:25;24.77;;;16.97;;
5519;SDS011;2782;52.362;10.012;2023-09-12T04:35:27;29.65;;;17.67;;
5519;SDS011;2782;52.362;10.012;2023-09-12T04:36:28;26.10;;;17.23;;
5519;SDS011;2782;52.362;10.012;2023-09-12T04:37:29;24.88;;;17.10;;
5519;SDS011;2782;52.362;10.012;2023-09-12T04:38:30;24.50;;;17.37;;
5519;SDS011;2782;52.362;10.012;2023-09-12T04:39:33;20.52;;;16.25;;
5519;SDS011;2782;52.362;10.012;2023-09-12T04:40:33;20.73;;;15.87;;
5519;SDS011;2782;52.362;10.012;2023-09-12T04:41:35;23.52;;;15.50;;
5519;SDS011;2782;52.362;10.012;2023-09-12T04:42:36;20.73;;;14.73;;
5519;SDS011;2782;52.362;10.012;2023-09-12T04:43:37;26.05;;;16.23;;
5519;SDS011;2782;52.362;10.012;2023-09-12T04:44:39;21.50;;;16.23;;
5519;SDS011;2782;52.362;10.012;2023-09-12T04:45:41;20.65;;;14.82;;
5519;SDS011;2782;52.362;10.012;2023-09-12T04:46:42;19.83;;;15.30;;
5519;SDS011;2782;52.362;10.012;2023-09-12T04:47:45;25.35;;;15.40;;
5519;SDS011;2782;52.362;10.012;2023-09-12T04:48:45;21.38;;;14.25;;
5519;SDS011;2782;52.362;10.012;2023-09-12T04:49:47;21.63;;;15.20;;
5519;SDS011;2782;52.362;10.012;2023-09-12T04:50:48;23.33;;;14.97;;
5519;SDS011;2782;52.362;10.012;2023-09-12T04:51:49;29.30;;;15.20;;
5519;SDS011;2782;52.362;10.012;2023-09-12T04:52:50;23.40;;;16.57;;
5519;SDS011;2782;52.362;10.012;2023-09-12T04:53:52;23.95;;;16.27;;
5519;SDS011;2782;52.362;10.012;2023-09-12T04:54:52;23.67;;;15.73;;
5519;SDS011;2782;52.362;10.012;2023-09-12T04:55:54;27.25;;;15.98;;
5519;SDS011;2782;52.362;10.012;2023-09-12T04:56:55;20.65;;;14.40;;
5519;SDS011;2782;52.362;10.012;2023-09-12T04:57:57;20.52;;;15.85;;
5519;SDS011;2782;52.362;10.012;2023-09-12T04:58:58;21.77;;;15.10;;
5519;SDS011;2782;52.362;10.012;2023-09-12T04:59:59;21.88;;;15.02;;
5519;SDS011;2782;52.362;10.012;2023-09-12T05:01:00;28.23;;;15.40;;
5519;SDS011;2782;52.362;10.012;2023-09-12T05:02:02;45.65;;;20.17;;
5519;SDS011;2782;52.362;10.012;2023-09-12T05:03:05;50.08;;;20.25;;
5519;SDS011;2782;52.362;10.012;2023-09-12T05:04:06;145.45;;;43.33;;
5519;SDS011;2782;52.362;10.012;2023-09-12T05:05:07;128.80;;;35.90;;
5519;SDS011;2782;52.362;10.012;2023-09-12T05:06:09;120.22;;;32.30;;
5519;SDS011;2782;52.362;10.012;2023-09-12T05:07:10;68.43;;;25.70;;
5519;SDS011;2782;52.362;10.012;2023-09-12T05:08:11;50.67;;;23.33;;
5519;SDS011;2782;52.362;10.012;2023-09-12T05:09:13;54.15;;;20.80;;
5519;SDS011;2782;52.362;10.012;2023-09-12T05:10:13;37.30;;;19.13;;
5519;SDS011;2782;52.362;10.012;2023-09-12T05:11:15;31.73;;;18.15;;
5519;SDS011;2782;52.362;10.012;2023-09-12T05:12:16;32.43;;;18.20;;
5519;SDS011;2782;52.362;10.012;2023-09-12T05:13:17;27.52;;;16.45;;
5519;SDS011;2782;52.362;10.012;2023-09-12T05:14:18;27.70;;;16.97;;
5519;SDS011;2782;52.362;10.012;2023-09-12T05:15:20;37.85;;;17.90;;
5519;SDS011;2782;52.362;10.012;2023-09-12T05:16:20;26.37;;;16.63;;
5519;SDS011;2782;52.362;10.012;2023-09-12T05:17:22;28.98;;;16.05;;
5519;SDS011;2782;52.362;10.012;2023-09-12T05:18:24;25.67;;;15.60;;
5519;SDS011;2782;52.362;10.012;2023-09-12T05:19:26;23.90;;;13.50;;
5519;SDS011;2782;52.362;10.012;2023-09-12T05:20:26;26.03;;;14.40;;
5519;SDS011;2782;52.362;10.012;2023-09-12T05:21:28;24.23;;;15.38;;
5519;SDS011;2782;52.362;10.012;2023-09-12T05:22:29;23.67;;;14.80;;
5519;SDS011;2782;52.362;10.012;2023-09-12T05:23:30;19.67;;;13.65;;
5519;SDS011;2782;52.362;10.012;2023-09-12T05:24:31;20.83;;;14.27;;
5519;SDS011;2782;52.362;10.012;2023-09-12T05:25:33;25.88;;;15.20;;
5519;SDS011;2782;52.362;10.012;2023-09-12T05:26:33;17.17;;;13.90;;
5519;SDS011;2782;52.362;10.012;2023-09-12T05:27:35;24.90;;;14.32;;
5519;SDS011;2782;52.362;10.012;2023-09-12T05:28:36;24.60;;;14.30;;
5519;SDS011;2782;52.362;10.012;2023-09-12T05:29:37;23.05;;;14.65;;
5519;SDS011;2782;52.362;10.012;2023-09-12T05:30:38;28.73;;;14.10;;
5519;SDS011;2782;52.362;10.012;2023-09-12T05:31:41;21.75;;;14.70;;
5519;SDS011;2782;52.362;10.012;2023-09-12T05:32:42;18.98;;;13.27;;
5519;SDS011;2782;52.362;10.012;2023-09-12T05:33:45;21.02;;;12.15;;
5519;SDS011;2782;52.362;10.012;2023-09-12T05:34:45;21.77;;;13.57;;
5519;SDS011;2782;52.362;10.012;2023-09-12T05:35:49;23.67;;;14.68;;
5519;SDS011;2782;52.362;10.012;2023-09-12T05:36:50;21.30;;;14.50;;
5519;SDS011;2782;52.362;10.012;2023-09-12T05:37:52;21.25;;;13.10;;
5519;SDS011;2782;52.362;10.012;2023-09-12T05:38:52;24.87;;;13.43;;
5519;SDS011;2782;52.362;10.012;2023-09-12T05:39:54;19.58;;;11.55;;
5519;SDS011;2782;52.362;10.012;2023-09-12T05:40:55;18.17;;;13.83;;
5519;SDS011;2782;52.362;10.012;2023-09-12T05:41:57;19.75;;;12.65;;
5519;SDS011;2782;52.362;10.012;2023-09-12T05:42:58;19.37;;;11.93;;
5519;SDS011;2782;52.362;10.012;2023-09-12T05:43:59;24.13;;;12.73;;
5519;SDS011;2782;52.362;10.012;2023-09-12T05:45:00;22.83;;;13.47;;
5519;SDS011;2782;52.362;10.012;2023-09-12T05:46:02;20.38;;;12.90;;
5519;SDS011;2782;52.362;10.012;2023-09-12T05:47:03;16.90;;;12.30;;
5519;SDS011;2782;52.362;10.012;2023-09-12T05:48:04;16.10;;;12.75;;
5519;SDS011;2782;52.362;10.012;2023-09-12T05:49:06;22.20;;;11.90;;
5519;SDS011;2782;52.362;10.012;2023-09-12T05:50:08;23.15;;;13.30;;
5519;SDS011;2782;52.362;10.012;2023-09-12T05:51:09;18.07;;;13.07;;
5519;SDS011;2782;52.362;10.012;2023-09-12T05:52:11;17.05;;;13.50;;
5519;SDS011;2782;52.362;10.012;2023-09-12T05:53:12;18.13;;;11.60;;
5519;SDS011;2782;52.362;10.012;2023-09-12T05:54:13;21.03;;;12.83;;
5519;SDS011;2782;52.362;10.012;2023-09-12T05:55:15;18.08;;;13.35;;
5519;SDS011;2782;52.362;10.012;2023-09-12T05:56:16;25.30;;;13.40;;
5519;SDS011;2782;52.362;10.012;2023-09-12T05:57:18;18.80;;;13.75;;
5519;SDS011;2782;52.362;10.012;2023-09-12T05:58:18;18.23;;;13.63;;
5519;SDS011;2782;52.362;10.012;2023-09-12T05:59:20;24.70;;;15.00;;
5519;SDS011;2782;52.362;10.012;2023-09-12T06:00:21;16.77;;;13.57;;
5519;SDS011;2782;52.362;10.012;2023-09-12T06:01:22;17.85;;;13.25;;
5519;SDS011;2782;52.362;10.012;2023-09-12T06:02:23;19.70;;;14.40;;
5519;SDS011;2782;52.362;10.012;2023-09-12T06:03:25;23.13;;;12.90;;
5519;SDS011;2782;52.362;10.012;2023-09-12T06:04:27;21.87;;;12.57;;
5519;SDS011;2782;52.362;10.012;2023-09-12T06:05:29;18.52;;;12.75;;
5519;SDS011;2782;52.362;10.012;2023-09-12T06:06:29;20.70;;;12.50;;
5519;SDS011;2782;52.362;10.012;2023-09-12T06:07:31;19.02;;;12.32;;
5519;SDS011;2782;52.362;10.012;2023-09-12T06:08:32;19.50;;;12.77;;
5519;SDS011;2782;52.362;10.012;2023-09-12T06:09:34;23.35;;;11.68;;
5519;SDS011;2782;52.362;10.012;2023-09-12T06:10:34;16.20;;;11.53;;
5519;SDS011;2782;52.362;10.012;2023-09-12T06:11:36;18.98;;;12.00;;